sensor_id;sensor_type;location;lat;lon;timestamp;pressure;altitude;pressure_sealevel;temperature;humidity
59757;BME280;45631;51.962;5.974;2023-09-30T00:00:02;102301.91;;;11.15;100.00
59757;BME280;45631;51.962;5.974;2023-09-30T00:02:33;102297.47;;;11.16;100.00
59757;BME280;45631;51.962;5.974;2023-09-30T00:05:01;102302.09;;;11.11;100.00
59757;BME280;45631;51.962;5.974;2023-09-30T00:07:31;102313.34;;;11.14;100.00
59757;BME280;45631;51.962;5.974;2023-09-30T00:09:59;102322.16;;;11.13;100.00
59757;BME280;45631;51.962;5.974;2023-09-30T00:12:27;102316.72;;;11.18;100.00
59757;BME280;45631;51.962;5.974;2023-09-30T00:14:55;102306.28;;;11.15;100.00
59757;BME280;45631;51.962;5.974;2023-09-30T00:17:23;102299.34;;;11.14;100.00
59757;BME280;45631;51.962;5.974;2023-09-30T00:19:53;102316.19;;;11.10;100.00
59757;BME280;45631;51.962;5.974;2023-09-30T00:22:23;102325.53;;;11.17;100.00
59757;BME280;45631;51.962;5.974;2023-09-30T00:24:51;102318.28;;;11.22;100.00
59757;BME280;45631;51.962;5.974;2023-09-30T00:27:23;102320.03;;;11.22;100.00
59757;BME280;45631;51.962;5.974;2023-09-30T00:29:51;102323.66;;;11.19;100.00
59757;BME280;45631;51.962;5.974;2023-09-30T00:32:19;102321.31;;;11.13;100.00
59757;BME280;45631;51.962;5.974;2023-09-30T00:34:47;102321.19;;;11.16;100.00
59757;BME280;45631;51.962;5.974;2023-09-30T00:37:17;102315.13;;;11.14;100.00
59757;BME280;45631;51.962;5.974;2023-09-30T00:39:48;102313.56;;;11.10;100.00
59757;BME280;45631;51.962;5.974;2023-09-30T00:42:16;102313.56;;;11.10;100.00
59757;BME280;45631;51.962;5.974;2023-09-30T00:44:45;102325.00;;;11.09;100.00
59757;BME280;45631;51.962;5.974;2023-09-30T00:47:13;102330.00;;;11.15;100.00
59757;BME280;45631;51.962;5.974;2023-09-30T00:49:42;102335.69;;;11.06;100.00
59757;BME280;45631;51.962;5.974;2023-09-30T00:52:10;102335.72;;;11.04;100.00
59757;BME280;45631;51.962;5.974;2023-09-30T00:54:40;102331.34;;;11.05;100.00
59757;BME280;45631;51.962;5.974;2023-09-30T00:57:11;102337.59;;;11.02;100.00
59757;BME280;45631;51.962;5.974;2023-09-30T00:59:40;102341.28;;;10.98;100.00
59757;BME280;45631;51.962;5.974;2023-09-30T01:02:08;102343.00;;;10.99;100.00
59757;BME280;45631;51.962;5.974;2023-09-30T01:04:37;102348.88;;;11.04;100.00
59757;BME280;45631;51.962;5.974;2023-09-30T01:07:07;102358.78;;;10.99;100.00
59757;BME280;45631;51.962;5.974;2023-09-30T01:09:35;102356.19;;;10.97;100.00
59757;BME280;45631;51.962;5.974;2023-09-30T01:12:06;102358.66;;;11.02;100.00
59757;BME280;45631;51.962;5.974;2023-09-30T01:14:35;102352.41;;;11.05;100.00
59757;BME280;45631;51.962;5.974;2023-09-30T01:17:05;102345.28;;;11.07;100.00
59757;BME280;45631;51.962;5.974;2023-09-30T01:19:35;102351.28;;;10.90;100.00
59757;BME280;45631;51.962;5.974;2023-09-30T01:22:05;102347.00;;;10.87;100.00
59757;BME280;45631;51.962;5.974;2023-09-30T01:24:39;102349.63;;;10.87;100.00
59757;BME280;45631;51.962;5.974;2023-09-30T01:27:08;102354.03;;;10.87;100.00
59757;BME280;45631;51.962;5.974;2023-09-30T01:29:40;102354.34;;;10.79;100.00
59757;BME280;45631;51.962;5.974;2023-09-30T01:32:08;102355.81;;;10.86;100.00
59757;BME280;45631;51.962;5.974;2023-09-30T01:34:37;102365.63;;;10.82;100.00
59757;BME280;45631;51.962;5.974;2023-09-30T01:37:06;102363.97;;;10.80;100.00
59757;BME280;45631;51.962;5.974;2023-09-30T01:39:34;102362.13;;;10.82;100.00
59757;BME280;45631;51.962;5.974;2023-09-30T01:42:03;102380.69;;;10.79;100.00
59757;BME280;45631;51.962;5.974;2023-09-30T01:44:31;102383.44;;;10.76;100.00
59757;BME280;45631;51.962;5.974;2023-09-30T01:47:00;102382.63;;;10.74;100.00
59757;BME280;45631;51.962;5.974;2023-09-30T01:49:28;102377.63;;;10.68;100.00
59757;BME280;45631;51.962;5.974;2023-09-30T01:51:56;102375.13;;;10.64;100.00
59757;BME280;45631;51.962;5.974;2023-09-30T01:54:26;102370.91;;;10.60;100.00
59757;BME280;45631;51.962;5.974;2023-09-30T01:56:54;102366.56;;;10.59;100.00
59757;BME280;45631;51.962;5.974;2023-09-30T01:59:25;102363.13;;;10.57;100.00
59757;BME280;45631;51.962;5.974;2023-09-30T02:01:54;102360.56;;;10.56;100.00
59757;BME280;45631;51.962;5.974;2023-09-30T02:04:26;102363.13;;;10.57;100.00
59757;BME280;45631;51.962;5.974;2023-09-30T02:06:54;102357.03;;;10.57;100.00
59757;BME280;45631;51.962;5.974;2023-09-30T02:09:22;102353.72;;;10.52;100.00
59757;BME280;45631;51.962;5.974;2023-09-30T02:11:51;102356.66;;;10.44;100.00
59757;BME280;45631;51.962;5.974;2023-09-30T02:14:19;102358.38;;;10.45;100.00
59757;BME280;45631;51.962;5.974;2023-09-30T02:16:48;102348.63;;;10.47;100.00
59757;BME280;45631;51.962;5.974;2023-09-30T02:19:16;102346.81;;;10.49;100.00
59757;BME280;45631;51.962;5.974;2023-09-30T02:21:44;102357.78;;;10.38;100.00
59757;BME280;45631;51.962;5.974;2023-09-30T02:24:12;102363.78;;;10.42;100.00
59757;BME280;45631;51.962;5.974;2023-09-30T02:26:42;102367.19;;;10.44;100.00
59757;BME280;45631;51.962;5.974;2023-09-30T02:29:11;102372.69;;;10.38;100.00
59757;BME280;45631;51.962;5.974;2023-09-30T02:31:39;102381.59;;;10.34;100.00
59757;BME280;45631;51.962;5.974;2023-09-30T02:34:08;102371.19;;;10.30;100.00
59757;BME280;45631;51.962;5.974;2023-09-30T02:36:36;102366.66;;;10.34;100.00
59757;BME280;45631;51.962;5.974;2023-09-30T02:39:06;102372.06;;;10.31;100.00
59757;BME280;45631;51.962;5.974;2023-09-30T02:41:36;102363.63;;;10.23;100.00
59757;BME280;45631;51.962;5.974;2023-09-30T02:44:04;102366.06;;;10.27;100.00
59757;BME280;45631;51.962;5.974;2023-09-30T02:46:34;102364.22;;;10.29;100.00
59757;BME280;45631;51.962;5.974;2023-09-30T02:49:02;102365.00;;;10.31;100.00
59757;BME280;45631;51.962;5.974;2023-09-30T02:51:30;102356.34;;;10.29;100.00
59757;BME280;45631;51.962;5.974;2023-09-30T02:53:59;102353.72;;;10.29;100.00
59757;BME280;45631;51.962;5.974;2023-09-30T02:56:27;102351.88;;;10.31;100.00
59757;BME280;45631;51.962;5.974;2023-09-30T02:58:59;102348.47;;;10.29;100.00
59757;BME280;45631;51.962;5.974;2023-09-30T03:01:28;102346.59;;;10.31;100.00
59757;BME280;45631;51.962;5.974;2023-09-30T03:03:59;102346.50;;;10.35;100.00
59757;BME280;45631;51.962;5.974;2023-09-30T03:06:27;102355.97;;;10.39;100.00
59757;BME280;45631;51.962;5.974;2023-09-30T03:08:55;102358.75;;;10.36;100.00
59757;BME280;45631;51.962;5.974;2023-09-30T03:11:24;102358.63;;;10.39;100.00
59757;BME280;45631;51.962;5.974;2023-09-30T03:13:52;102343.72;;;10.39;100.00
59757;BME280;45631;51.962;5.974;2023-09-30T03:16:22;102347.84;;;10.45;100.00
59757;BME280;45631;51.962;5.974;2023-09-30T03:18:51;102347.94;;;10.43;100.00
59757;BME280;45631;51.962;5.974;2023-09-30T03:21:24;102349.44;;;10.49;100.00
59757;BME280;45631;51.962;5.974;2023-09-30T03:23:52;102352.22;;;10.46;100.00
59757;BME280;45631;51.962;5.974;2023-09-30T03:26:20;102346.81;;;10.49;100.00
59757;BME280;45631;51.962;5.974;2023-09-30T03:28:48;102360.81;;;10.49;100.00
59757;BME280;45631;51.962;5.974;2023-09-30T03:31:19;102359.59;;;10.58;100.00
59757;BME280;45631;51.962;5.974;2023-09-30T03:33:47;102344.59;;;10.60;100.00
59757;BME280;45631;51.962;5.974;2023-09-30T03:36:16;102351.56;;;10.61;100.00
59757;BME280;45631;51.962;5.974;2023-09-30T03:38:46;102349.75;;;10.63;100.00
59757;BME280;45631;51.962;5.974;2023-09-30T03:41:15;102340.91;;;10.64;100.00
59757;BME280;45631;51.962;5.974;2023-09-30T03:43:45;102346.00;;;10.69;100.00
59757;BME280;45631;51.962;5.974;2023-09-30T03:46:14;102338.88;;;10.71;100.00
59757;BME280;45631;51.962;5.974;2023-09-30T03:48:42;102340.75;;;10.69;100.00
59757;BME280;45631;51.962;5.974;2023-09-30T03:51:12;102340.66;;;10.71;100.00
59757;BME280;45631;51.962;5.974;2023-09-30T03:53:41;102333.56;;;10.73;100.00
59757;BME280;45631;51.962;5.974;2023-09-30T03:56:11;102326.47;;;10.75;100.00
59757;BME280;45631;51.962;5.974;2023-09-30T03:58:40;102332.50;;;10.77;100.00
59757;BME280;45631;51.962;5.974;2023-09-30T04:01:08;102335.09;;;10.78;100.00
59757;BME280;45631;51.962;5.974;2023-09-30T04:03:38;102339.34;;;10.81;100.00
59757;BME280;45631;51.962;5.974;2023-09-30T04:06:10;102339.31;;;10.82;100.00
59757;BME280;45631;51.962;5.974;2023-09-30T04:08:39;102335.94;;;10.79;100.00
59757;BME280;45631;51.962;5.974;2023-09-30T04:11:07;102342.72;;;10.85;100.00
59757;BME280;45631;51.962;5.974;2023-09-30T04:13:38;102341.88;;;10.84;100.00
59757;BME280;45631;51.962;5.974;2023-09-30T04:16:06;102344.59;;;10.81;100.00
59757;BME280;45631;51.962;5.974;2023-09-30T04:18:35;102346.47;;;10.79;100.00
59757;BME280;45631;51.962;5.974;2023-09-30T04:21:03;102357.00;;;10.79;100.00
59757;BME280;45631;51.962;5.974;2023-09-30T04:23:30;102357.75;;;10.81;100.00
59757;BME280;45631;51.962;5.974;2023-09-30T04:25:58;102358.56;;;10.83;100.00
59757;BME280;45631;51.962;5.974;2023-09-30T04:28:26;102357.59;;;10.86;100.00
59757;BME280;45631;51.962;5.974;2023-09-30T04:30:56;102363.56;;;10.89;100.00
59757;BME280;45631;51.962;5.974;2023-09-30T04:33:25;102361.22;;;10.83;100.00
59757;BME280;45631;51.962;5.974;2023-09-30T04:35:53;102357.72;;;10.82;100.00
59757;BME280;45631;51.962;5.974;2023-09-30T04:38:24;102356.00;;;10.81;100.00
59757;BME280;45631;51.962;5.974;2023-09-30T04:40:52;102353.91;;;10.90;100.00
59757;BME280;45631;51.962;5.974;2023-09-30T04:43:21;102356.72;;;10.85;100.00
59757;BME280;45631;51.962;5.974;2023-09-30T04:45:49;102357.44;;;10.89;100.00
59757;BME280;45631;51.962;5.974;2023-09-30T04:48:21;102364.81;;;10.80;100.00
59757;BME280;45631;51.962;5.974;2023-09-30T04:50:49;102370.81;;;10.84;100.00
59757;BME280;45631;51.962;5.974;2023-09-30T04:53:18;102372.66;;;10.82;100.00
59757;BME280;45631;51.962;5.974;2023-09-30T04:55:49;102370.75;;;10.86;100.00
59757;BME280;45631;51.962;5.974;2023-09-30T04:58:18;102369.03;;;10.85;100.00
59757;BME280;45631;51.962;5.974;2023-09-30T05:00:46;102361.34;;;10.80;100.00
59757;BME280;45631;51.962;5.974;2023-09-30T05:03:14;102370.69;;;10.87;100.00
59757;BME280;45631;51.962;5.974;2023-09-30T05:05:44;102374.09;;;10.89;100.00
59757;BME280;45631;51.962;5.974;2023-09-30T05:08:12;102378.38;;;10.92;100.00
59757;BME280;45631;51.962;5.974;2023-09-30T05:10:41;102376.63;;;10.92;100.00
59757;BME280;45631;51.962;5.974;2023-09-30T05:13:09;102380.22;;;10.90;100.00
59757;BME280;45631;51.962;5.974;2023-09-30T05:15:40;102388.28;;;10.85;100.00
59757;BME280;45631;51.962;5.974;2023-09-30T05:18:12;102379.34;;;10.89;100.00
59757;BME280;45631;51.962;5.974;2023-09-30T05:20:40;102379.50;;;10.86;100.00
59757;BME280;45631;51.962;5.974;2023-09-30T05:23:10;102386.63;;;10.84;100.00
59757;BME280;45631;51.962;5.974;2023-09-30T05:25:39;102398.81;;;10.85;100.00
59757;BME280;45631;51.962;5.974;2023-09-30T05:28:09;102394.56;;;10.82;100.00
59757;BME280;45631;51.962;5.974;2023-09-30T05:30:40;102391.66;;;10.89;100.00
59757;BME280;45631;51.962;5.974;2023-09-30T05:33:13;102384.75;;;10.86;100.00
59757;BME280;45631;51.962;5.974;2023-09-30T05:35:41;102383.00;;;10.87;100.00
59757;BME280;45631;51.962;5.974;2023-09-30T05:38:11;102384.63;;;10.89;100.00
59757;BME280;45631;51.962;5.974;2023-09-30T05:40:40;102380.53;;;10.82;100.00
59757;BME280;45631;51.962;5.974;2023-09-30T05:43:08;102379.69;;;10.81;100.00
59757;BME280;45631;51.962;5.974;2023-09-30T05:45:40;102378.50;;;10.89;100.00
59757;BME280;45631;51.962;5.974;2023-09-30T05:48:16;102379.69;;;10.81;100.00
59757;BME280;45631;51.962;5.974;2023-09-30T05:50:44;102384.97;;;10.81;100.00
59757;BME280;45631;51.962;5.974;2023-09-30T05:53:14;102386.53;;;10.86;100.00
59757;BME280;45631;51.962;5.974;2023-09-30T05:55:42;102387.38;;;10.86;100.00
59757;BME280;45631;51.962;5.974;2023-09-30T05:58:15;102397.00;;;10.87;100.00
59757;BME280;45631;51.962;5.974;2023-09-30T06:00:43;102394.38;;;10.87;100.00
59757;BME280;45631;51.962;5.974;2023-09-30T06:03:12;102393.69;;;10.82;100.00
59757;BME280;45631;51.962;5.974;2023-09-30T06:05:40;102391.72;;;10.87;100.00
59757;BME280;45631;51.962;5.974;2023-09-30T06:08:10;102398.91;;;10.83;100.00
59757;BME280;45631;51.962;5.974;2023-09-30T06:10:44;102397.00;;;10.87;100.00
59757;BME280;45631;51.962;5.974;2023-09-30T06:13:13;102398.13;;;10.81;100.00
59757;BME280;45631;51.962;5.974;2023-09-30T06:15:45;102395.03;;;10.92;100.00
59757;BME280;45631;51.962;5.974;2023-09-30T06:18:13;102395.22;;;10.88;100.00
59757;BME280;45631;51.962;5.974;2023-09-30T06:20:42;102388.25;;;10.87;100.00
59757;BME280;45631;51.962;5.974;2023-09-30T06:23:10;102393.31;;;10.91;100.00
59757;BME280;45631;51.962;5.974;2023-09-30T06:25:38;102395.81;;;10.94;100.00
59757;BME280;45631;51.962;5.974;2023-09-30T06:28:08;102401.22;;;10.91;100.00
59757;BME280;45631;51.962;5.974;2023-09-30T06:30:39;102389.78;;;10.92;100.00
59757;BME280;45631;51.962;5.974;2023-09-30T06:33:09;102397.59;;;10.94;100.00
59757;BME280;45631;51.962;5.974;2023-09-30T06:35:40;102398.28;;;10.99;100.00
59757;BME280;45631;51.962;5.974;2023-09-30T06:38:17;102388.38;;;11.04;100.00
59757;BME280;45631;51.962;5.974;2023-09-30T06:40:46;102398.91;;;11.04;100.00
59757;BME280;45631;51.962;5.974;2023-09-30T06:43:16;102409.13;;;11.12;100.00
59757;BME280;45631;51.962;5.974;2023-09-30T06:45:45;102406.50;;;11.12;100.00
59757;BME280;45631;51.962;5.974;2023-09-30T06:48:13;102417.69;;;11.17;100.00
59757;BME280;45631;51.962;5.974;2023-09-30T06:50:44;102421.91;;;11.21;100.00
59757;BME280;45631;51.962;5.974;2023-09-30T06:53:12;102427.91;;;11.25;100.00
59757;BME280;45631;51.962;5.974;2023-09-30T06:55:41;102431.91;;;11.33;100.00
59757;BME280;45631;51.962;5.974;2023-09-30T06:58:13;102440.34;;;11.42;100.00
59757;BME280;45631;51.962;5.974;2023-09-30T07:00:46;102439.28;;;11.46;100.00
59757;BME280;45631;51.962;5.974;2023-09-30T07:03:15;102434.59;;;11.53;100.00
59757;BME280;45631;51.962;5.974;2023-09-30T07:05:43;102433.31;;;11.61;100.00
59757;BME280;45631;51.962;5.974;2023-09-30T07:08:11;102443.41;;;11.72;100.00
59757;BME280;45631;51.962;5.974;2023-09-30T07:10:40;102443.06;;;11.80;100.00
59757;BME280;45631;51.962;5.974;2023-09-30T07:13:11;102443.50;;;11.90;100.00
59757;BME280;45631;51.962;5.974;2023-09-30T07:15:39;102436.28;;;11.95;100.00
59757;BME280;45631;51.962;5.974;2023-09-30T07:18:09;102452.66;;;12.02;100.00
59757;BME280;45631;51.962;5.974;2023-09-30T07:20:39;102462.00;;;12.09;100.00
59757;BME280;45631;51.962;5.974;2023-09-30T07:23:07;102465.13;;;12.17;100.00
59757;BME280;45631;51.962;5.974;2023-09-30T07:25:48;102471.78;;;12.26;100.00
59757;BME280;45631;51.962;5.974;2023-09-30T07:28:16;102474.75;;;12.56;100.00
59757;BME280;45631;51.962;5.974;2023-09-30T07:30:47;102475.88;;;12.70;100.00
59757;BME280;45631;51.962;5.974;2023-09-30T07:33:17;102485.47;;;12.90;100.00
59757;BME280;45631;51.962;5.974;2023-09-30T07:35:45;102484.94;;;13.18;100.00
59757;BME280;45631;51.962;5.974;2023-09-30T07:38:13;102480.94;;;13.28;100.00
59757;BME280;45631;51.962;5.974;2023-09-30T07:40:41;102470.47;;;13.44;100.00
59757;BME280;45631;51.962;5.974;2023-09-30T07:43:10;102487.88;;;13.82;100.00
59757;BME280;45631;51.962;5.974;2023-09-30T07:45:39;102485.97;;;14.01;100.00
59757;BME280;45631;51.962;5.974;2023-09-30T07:48:07;102492.25;;;14.32;100.00
59757;BME280;45631;51.962;5.974;2023-09-30T07:50:37;102495.31;;;14.41;100.00
59757;BME280;45631;51.962;5.974;2023-09-30T07:53:08;102493.47;;;14.75;100.00
59757;BME280;45631;51.962;5.974;2023-09-30T07:55:36;102503.63;;;14.66;100.00
59757;BME280;45631;51.962;5.974;2023-09-30T07:58:04;102500.38;;;14.93;100.00
59757;BME280;45631;51.962;5.974;2023-09-30T08:00:37;102512.53;;;15.12;100.00
59757;BME280;45631;51.962;5.974;2023-09-30T08:03:10;102508.19;;;15.41;100.00
59757;BME280;45631;51.962;5.974;2023-09-30T08:05:40;102513.09;;;15.33;100.00
59757;BME280;45631;51.962;5.974;2023-09-30T08:08:09;102510.56;;;15.46;100.00
59757;BME280;45631;51.962;5.974;2023-09-30T08:10:37;102515.69;;;15.63;100.00
59757;BME280;45631;51.962;5.974;2023-09-30T08:13:05;102518.84;;;15.70;100.00
59757;BME280;45631;51.962;5.974;2023-09-30T08:15:34;102520.25;;;15.61;100.00
59757;BME280;45631;51.962;5.974;2023-09-30T08:18:03;102516.88;;;15.74;100.00
59757;BME280;45631;51.962;5.974;2023-09-30T08:20:33;102509.91;;;15.87;100.00
59757;BME280;45631;51.962;5.974;2023-09-30T08:23:02;102500.28;;;16.28;100.00
59757;BME280;45631;51.962;5.974;2023-09-30T08:25:31;102503.97;;;16.25;100.00
59757;BME280;45631;51.962;5.974;2023-09-30T08:27:59;102504.81;;;16.40;100.00
59757;BME280;45631;51.962;5.974;2023-09-30T08:30:27;102496.69;;;16.70;100.00
59757;BME280;45631;51.962;5.974;2023-09-30T08:32:55;102501.31;;;16.54;100.00
59757;BME280;45631;51.962;5.974;2023-09-30T08:35:24;102508.50;;;16.94;100.00
59757;BME280;45631;51.962;5.974;2023-09-30T08:37:52;102500.06;;;17.14;100.00
59757;BME280;45631;51.962;5.974;2023-09-30T08:40:22;102499.41;;;17.11;100.00
59757;BME280;45631;51.962;5.974;2023-09-30T08:42:52;102487.88;;;16.97;100.00
59757;BME280;45631;51.962;5.974;2023-09-30T08:45:21;102494.09;;;17.11;100.00
59757;BME280;45631;51.962;5.974;2023-09-30T08:47:49;102497.84;;;17.21;100.00
59757;BME280;45631;51.962;5.974;2023-09-30T08:50:19;102503.81;;;17.37;100.00
59757;BME280;45631;51.962;5.974;2023-09-30T08:52:48;102501.59;;;17.44;100.00
59757;BME280;45631;51.962;5.974;2023-09-30T08:55:21;102505.41;;;17.53;100.00
59757;BME280;45631;51.962;5.974;2023-09-30T08:57:50;102507.56;;;17.61;100.00
59757;BME280;45631;51.962;5.974;2023-09-30T09:00:20;102509.59;;;17.70;100.00
59757;BME280;45631;51.962;5.974;2023-09-30T09:02:49;102509.91;;;17.91;100.00
59757;BME280;45631;51.962;5.974;2023-09-30T09:05:18;102511.19;;;17.72;100.00
59757;BME280;45631;51.962;5.974;2023-09-30T09:07:46;102517.78;;;17.93;100.00
59757;BME280;45631;51.962;5.974;2023-09-30T09:10:14;102500.75;;;18.08;100.00
59757;BME280;45631;51.962;5.974;2023-09-30T09:12:54;102496.47;;;18.18;100.00
59757;BME280;45631;51.962;5.974;2023-09-30T09:15:24;102496.88;;;18.25;100.00
59757;BME280;45631;51.962;5.974;2023-09-30T09:17:53;102493.44;;;18.49;100.00
59757;BME280;45631;51.962;5.974;2023-09-30T09:20:22;102497.63;;;18.64;100.00
59757;BME280;45631;51.962;5.974;2023-09-30T09:22:55;102505.38;;;18.67;100.00
59757;BME280;45631;51.962;5.974;2023-09-30T09:25:27;102498.38;;;18.90;100.00
59757;BME280;45631;51.962;5.974;2023-09-30T09:27:56;102511.38;;;18.95;100.00
59757;BME280;45631;51.962;5.974;2023-09-30T09:30:26;102507.56;;;19.22;100.00
59757;BME280;45631;51.962;5.974;2023-09-30T09:32:59;102514.75;;;19.33;100.00
59757;BME280;45631;51.962;5.974;2023-09-30T09:35:28;102513.19;;;19.30;100.00
59757;BME280;45631;51.962;5.974;2023-09-30T09:37:58;102519.03;;;19.47;100.00
59757;BME280;45631;51.962;5.974;2023-09-30T09:40:28;102527.56;;;19.63;100.00
59757;BME280;45631;51.962;5.974;2023-09-30T09:42:59;102534.81;;;19.50;100.00
59757;BME280;45631;51.962;5.974;2023-09-30T09:45:34;102543.50;;;19.87;100.00
59757;BME280;45631;51.962;5.974;2023-09-30T09:48:03;102548.38;;;20.05;100.00
59757;BME280;45631;51.962;5.974;2023-09-30T09:50:32;102538.16;;;19.76;100.00
59757;BME280;45631;51.962;5.974;2023-09-30T09:53:04;102538.81;;;20.25;100.00
59757;BME280;45631;51.962;5.974;2023-09-30T09:55:33;102534.63;;;20.55;100.00
59757;BME280;45631;51.962;5.974;2023-09-30T09:58:07;102538.50;;;20.62;100.00
59757;BME280;45631;51.962;5.974;2023-09-30T10:00:38;102539.72;;;21.02;100.00
59757;BME280;45631;51.962;5.974;2023-09-30T10:03:07;102543.22;;;21.14;100.00
59757;BME280;45631;51.962;5.974;2023-09-30T10:05:35;102541.31;;;21.25;100.00
59757;BME280;45631;51.962;5.974;2023-09-30T10:08:09;102546.69;;;21.47;100.00
59757;BME280;45631;51.962;5.974;2023-09-30T10:10:39;102540.03;;;21.41;100.00
59757;BME280;45631;51.962;5.974;2023-09-30T10:13:09;102550.28;;;21.36;100.00
59757;BME280;45631;51.962;5.974;2023-09-30T10:15:58;102550.88;;;21.60;100.00
59757;BME280;45631;51.962;5.974;2023-09-30T10:18:26;102549.53;;;21.97;100.00
59757;BME280;45631;51.962;5.974;2023-09-30T10:21:07;102561.63;;;22.22;100.00
59757;BME280;45631;51.962;5.974;2023-09-30T10:23:36;102557.91;;;22.35;100.00
59757;BME280;45631;51.962;5.974;2023-09-30T10:26:15;102547.09;;;22.56;100.00
59757;BME280;45631;51.962;5.974;2023-09-30T10:28:47;102547.81;;;22.77;100.00
59757;BME280;45631;51.962;5.974;2023-09-30T10:31:19;102537.09;;;22.68;100.00
59757;BME280;45631;51.962;5.974;2023-09-30T10:37:21;102520.72;;;22.81;100.00
59757;BME280;45631;51.962;5.974;2023-09-30T10:39:54;102515.22;;;23.11;100.00
59757;BME280;45631;51.962;5.974;2023-09-30T10:42:45;102519.09;;;23.66;100.00
59757;BME280;45631;51.962;5.974;2023-09-30T10:48:35;102505.41;;;24.07;100.00
59757;BME280;45631;51.962;5.974;2023-09-30T10:51:14;102501.41;;;24.11;100.00
59757;BME280;45631;51.962;5.974;2023-09-30T10:53:47;102501.63;;;24.45;100.00
59757;BME280;45631;51.962;5.974;2023-09-30T10:56:19;102495.06;;;24.02;100.00
59757;BME280;45631;51.962;5.974;2023-09-30T10:58:49;102488.63;;;23.85;100.00
59757;BME280;45631;51.962;5.974;2023-09-30T11:01:19;102499.56;;;24.11;100.00
59757;BME280;45631;51.962;5.974;2023-09-30T11:03:50;102496.13;;;23.82;100.00
59757;BME280;45631;51.962;5.974;2023-09-30T11:06:20;102505.72;;;23.56;100.00
59757;BME280;45631;51.962;5.974;2023-09-30T11:08:52;102509.13;;;23.39;100.00
59757;BME280;45631;51.962;5.974;2023-09-30T11:11:33;102500.81;;;23.89;100.00
59757;BME280;45631;51.962;5.974;2023-09-30T11:14:01;102501.63;;;23.90;100.00
59757;BME280;45631;51.962;5.974;2023-09-30T11:16:42;102501.22;;;23.85;100.00
59757;BME280;45631;51.962;5.974;2023-09-30T11:19:14;102506.78;;;23.73;100.00
59757;BME280;45631;51.962;5.974;2023-09-30T11:21:43;102513.66;;;23.48;100.00
59757;BME280;45631;51.962;5.974;2023-09-30T11:24:13;102507.13;;;23.51;100.00
59757;BME280;45631;51.962;5.974;2023-09-30T11:26:41;102498.16;;;22.83;100.00
59757;BME280;45631;51.962;5.974;2023-09-30T11:29:11;102500.72;;;23.14;100.00
59757;BME280;45631;51.962;5.974;2023-09-30T11:31:40;102497.16;;;22.65;100.00
59757;BME280;45631;51.962;5.974;2023-09-30T11:34:10;102495.88;;;23.18;95.12
59757;BME280;45631;51.962;5.974;2023-09-30T11:36:41;102492.06;;;23.77;96.99
59757;BME280;45631;51.962;5.974;2023-09-30T11:39:21;102495.13;;;23.92;92.82
59757;BME280;45631;51.962;5.974;2023-09-30T11:41:50;102485.19;;;24.03;91.02
59757;BME280;45631;51.962;5.974;2023-09-30T11:44:19;102473.66;;;24.38;91.12
59757;BME280;45631;51.962;5.974;2023-09-30T11:46:48;102473.34;;;24.41;87.73
59757;BME280;45631;51.962;5.974;2023-09-30T11:49:29;102469.19;;;24.29;90.02
59757;BME280;45631;51.962;5.974;2023-09-30T11:52:00;102465.44;;;24.22;88.50
59757;BME280;45631;51.962;5.974;2023-09-30T11:54:30;102464.97;;;23.61;92.14
59757;BME280;45631;51.962;5.974;2023-09-30T11:57:00;102460.97;;;23.75;88.61
59757;BME280;45631;51.962;5.974;2023-09-30T11:59:28;102462.19;;;23.53;93.49
59757;BME280;45631;51.962;5.974;2023-09-30T12:01:57;102461.75;;;23.57;92.42
59757;BME280;45631;51.962;5.974;2023-09-30T12:04:41;102460.00;;;23.38;91.35
59757;BME280;45631;51.962;5.974;2023-09-30T12:07:12;102466.50;;;23.26;90.33
59757;BME280;45631;51.962;5.974;2023-09-30T12:09:40;102463.97;;;23.15;94.52
59757;BME280;45631;51.962;5.974;2023-09-30T12:12:09;102479.75;;;23.37;94.61
59757;BME280;45631;51.962;5.974;2023-09-30T12:14:39;102479.69;;;23.57;93.48
59757;BME280;45631;51.962;5.974;2023-09-30T12:17:07;102479.00;;;23.55;94.84
59757;BME280;45631;51.962;5.974;2023-09-30T12:19:39;102473.03;;;23.61;87.28
59757;BME280;45631;51.962;5.974;2023-09-30T12:22:09;102476.28;;;23.65;82.07
59757;BME280;45631;51.962;5.974;2023-09-30T12:24:39;102470.31;;;24.08;82.21
59757;BME280;45631;51.962;5.974;2023-09-30T12:27:08;102463.50;;;24.32;83.20
59757;BME280;45631;51.962;5.974;2023-09-30T12:29:36;102462.00;;;24.47;84.56
59757;BME280;45631;51.962;5.974;2023-09-30T12:32:06;102459.22;;;24.39;77.57
59757;BME280;45631;51.962;5.974;2023-09-30T12:34:34;102460.13;;;24.30;78.02
59757;BME280;45631;51.962;5.974;2023-09-30T12:37:03;102450.00;;;24.60;82.00
59757;BME280;45631;51.962;5.974;2023-09-30T12:39:31;102453.69;;;24.59;82.31
59757;BME280;45631;51.962;5.974;2023-09-30T12:42:02;102440.97;;;24.79;80.44
59757;BME280;45631;51.962;5.974;2023-09-30T12:44:35;102438.38;;;24.69;77.94
59757;BME280;45631;51.962;5.974;2023-09-30T12:47:04;102429.53;;;25.03;76.82
59757;BME280;45631;51.962;5.974;2023-09-30T12:49:32;102420.56;;;24.94;75.47
59757;BME280;45631;51.962;5.974;2023-09-30T12:52:00;102418.19;;;24.91;78.71
59757;BME280;45631;51.962;5.974;2023-09-30T12:54:28;102417.50;;;25.16;79.56
59757;BME280;45631;51.962;5.974;2023-09-30T12:56:57;102418.94;;;25.28;78.86
59757;BME280;45631;51.962;5.974;2023-09-30T12:59:26;102419.75;;;25.28;78.05